createdAt,value
2019-04-28T00:01:33.361Z,83.00
2019-04-28T00:04:03.382Z,82.50
2019-04-28T00:06:32.835Z,83.00
2019-04-28T00:09:02.002Z,83.10
2019-04-28T00:11:31.659Z,81.70
2019-04-28T00:14:01.890Z,82.30
2019-04-28T00:16:31.681Z,81.70
2019-04-28T00:19:01.242Z,81.50
2019-04-28T00:21:36.954Z,83.40
2019-04-28T00:24:25.152Z,82.10
2019-04-28T00:26:56.715Z,83.30
2019-04-28T00:29:37.624Z,83.80
2019-04-28T00:31:56.925Z,83.10
2019-04-28T00:34:26.084Z,82.70
2019-04-28T00:37:17.475Z,84.20
2019-04-28T00:39:46.699Z,83.40
2019-04-28T00:42:15.986Z,83.50
2019-04-28T00:44:45.201Z,83.90
2019-04-28T00:47:14.480Z,83.10
2019-04-28T00:49:46.650Z,83.10
2019-04-28T00:52:17.198Z,83.90
2019-04-28T00:54:47.455Z,83.00
2019-04-28T00:57:16.847Z,82.20
2019-04-28T00:59:56.670Z,80.60
2019-04-28T01:02:42.390Z,79.50
2019-04-28T01:05:12.131Z,79.00
2019-04-28T01:07:41.567Z,79.10
2019-04-28T01:10:11.962Z,78.50
2019-04-28T01:12:41.298Z,78.90
2019-04-28T01:15:20.183Z,79.10
2019-04-28T01:18:11.453Z,81.00
2019-04-28T01:20:40.687Z,79.80
2019-04-28T01:23:10.446Z,79.20
2019-04-28T01:25:40.237Z,79.20
2019-04-28T01:28:09.830Z,78.70
2019-04-28T01:31:04.601Z,79.30
2019-04-28T01:33:53.111Z,79.70
2019-04-28T01:36:22.380Z,79.80
2019-04-28T01:38:51.564Z,80.30
2019-04-28T01:41:20.712Z,80.90
2019-04-28T01:43:50.178Z,80.90
2019-04-28T01:46:19.939Z,81.00
2019-04-28T01:48:49.774Z,82.00
2019-04-28T01:51:19.056Z,82.70
2019-04-28T01:53:50.486Z,82.30
2019-04-28T01:56:20.434Z,83.20
2019-04-28T01:58:49.981Z,83.60
2019-04-28T02:01:20.784Z,83.00
2019-04-28T02:03:50.289Z,82.90
2019-04-28T02:06:19.932Z,83.50
2019-04-28T02:08:51.163Z,83.70
2019-04-28T02:11:20.341Z,84.20
2019-04-28T02:13:49.764Z,82.70
2019-04-28T02:16:21.022Z,82.60
2019-04-28T02:18:50.248Z,81.90
2019-04-28T02:21:44.424Z,83.20
2019-04-28T02:24:30.869Z,82.40
2019-04-28T02:27:01.088Z,83.50
2019-04-28T02:29:30.788Z,84.70
2019-04-28T02:32:02.259Z,84.40
2019-04-28T02:34:31.361Z,84.70
2019-04-28T02:37:01.827Z,84.20
2019-04-28T02:39:31.674Z,83.80
2019-04-28T02:42:01.911Z,84.90
2019-04-28T02:44:34.746Z,84.20
2019-04-28T02:47:02.473Z,84.70
2019-04-28T02:49:40.339Z,84.40
2019-04-28T02:52:16.395Z,85.00
2019-04-28T02:54:45.693Z,84.00
2019-04-28T02:57:15.015Z,84.70
2019-04-28T02:59:44.798Z,84.30
2019-04-28T03:02:14.553Z,84.20
2019-04-28T03:04:43.697Z,83.60
2019-04-28T03:07:14.560Z,83.20
2019-04-28T03:09:43.958Z,84.20
2019-04-28T03:12:13.224Z,84.90
2019-04-28T03:14:44.117Z,84.60
2019-04-28T03:17:13.629Z,83.30
2019-04-28T03:19:43.088Z,83.10
2019-04-28T03:22:12.249Z,83.30
2019-04-28T03:24:43.241Z,84.30
2019-04-28T03:27:23.658Z,84.60
2019-04-28T03:29:57.041Z,84.20
2019-04-28T03:32:45.036Z,84.80
2019-04-28T03:35:04.378Z,83.80
2019-04-28T03:37:33.768Z,84.40
2019-04-28T03:40:03.156Z,85.20
2019-04-28T03:42:32.319Z,84.30
2019-04-28T03:45:03.124Z,81.80
2019-04-28T03:47:32.499Z,81.90
2019-04-28T03:50:01.805Z,81.10
2019-04-28T03:52:31.765Z,83.10
2019-04-28T03:55:01.248Z,83.80
2019-04-28T03:57:31.330Z,84.00
2019-04-28T04:00:01.786Z,83.80
2019-04-28T04:02:33.122Z,83.90
2019-04-28T04:05:03.980Z,84.10
2019-04-28T04:07:33.265Z,82.50
2019-04-28T04:10:11.613Z,81.20
2019-04-28T04:12:46.062Z,81.10
2019-04-28T04:15:54.440Z,81.80
2019-04-28T04:18:30.805Z,79.70
2019-04-28T04:21:00.796Z,79.50
2019-04-28T04:23:30.930Z,79.30
2019-04-28T04:26:01.798Z,79.40
2019-04-28T04:28:31.413Z,81.20
2019-04-28T04:31:03.295Z,80.70
2019-04-28T04:33:31.748Z,80.40
2019-04-28T04:36:01.771Z,80.10
2019-04-28T04:38:31.593Z,79.40
2019-04-28T04:41:01.633Z,80.80
2019-04-28T04:43:31.709Z,80.90
2019-04-28T04:46:16.225Z,80.90
2019-04-28T04:48:45.843Z,81.10
2019-04-28T04:51:15.043Z,79.80
2019-04-28T04:53:44.219Z,80.30
2019-04-28T04:56:13.469Z,82.00
2019-04-28T04:58:42.748Z,82.20
2019-04-28T05:01:30.939Z,81.10
2019-04-28T05:04:06.196Z,80.70
2019-04-28T05:06:36.128Z,81.10
2019-04-28T05:09:10.102Z,81.80
2019-04-28T05:11:39.983Z,81.70
2019-04-28T05:14:11.550Z,80.80
2019-04-28T05:16:40.585Z,81.40
2019-04-28T05:19:10.349Z,82.40
2019-04-28T05:21:40.326Z,81.80
2019-04-28T05:24:31.713Z,83.00
2019-04-28T05:27:00.925Z,82.80
2019-04-28T05:29:30.627Z,82.30
2019-04-28T05:32:03.393Z,82.20
2019-04-28T05:34:31.237Z,82.40
2019-04-28T05:37:00.781Z,81.90
2019-04-28T05:39:30.137Z,80.40
2019-04-28T05:42:00.858Z,81.20
2019-04-28T05:44:31.958Z,80.70
2019-04-28T05:47:01.263Z,80.70
2019-04-28T05:50:01.818Z,79.30
2019-04-28T05:52:50.237Z,79.80
2019-04-28T05:55:23.851Z,77.90
2019-04-28T05:57:59.989Z,78.60
2019-04-28T06:00:39.723Z,78.20
2019-04-28T06:03:10.483Z,78.00
2019-04-28T06:05:39.833Z,79.20
2019-04-28T06:08:34.136Z,78.30
2019-04-28T06:11:22.365Z,77.90
2019-04-28T06:13:52.560Z,78.40
2019-04-28T06:16:22.129Z,80.50
2019-04-28T06:18:51.628Z,81.70
2019-04-28T06:21:21.022Z,81.20
2019-04-28T06:23:50.227Z,80.90
2019-04-28T06:26:19.495Z,80.60
2019-04-28T06:28:48.672Z,81.20
2019-04-28T06:31:17.930Z,77.90
2019-04-28T06:33:47.224Z,77.60
2019-04-28T06:36:16.408Z,74.40
2019-04-28T06:38:45.564Z,72.40
2019-04-28T06:41:14.841Z,73.20
2019-04-28T06:43:43.980Z,71.90
2019-04-28T06:46:13.148Z,71.80
2019-04-28T06:48:42.501Z,69.50
2019-04-28T06:51:11.665Z,66.60
2019-04-28T06:53:42.798Z,64.50
2019-04-28T06:56:12.111Z,65.90
2019-04-28T06:58:41.336Z,65.30
2019-04-28T07:01:10.721Z,68.50
2019-04-28T07:03:40.252Z,65.90
2019-04-28T07:06:09.417Z,63.70
2019-04-28T07:08:38.616Z,63.40
2019-04-28T07:11:07.765Z,64.90
2019-04-28T07:13:36.945Z,65.20
2019-04-28T07:16:06.168Z,63.70
2019-04-28T07:18:35.358Z,62.90
2019-04-28T07:21:19.981Z,61.40
2019-04-28T07:23:49.544Z,63.50
2019-04-28T07:26:18.719Z,66.80
2019-04-28T07:28:47.877Z,68.20
2019-04-28T07:31:18.049Z,69.00
2019-04-28T07:33:47.245Z,69.30
2019-04-28T07:36:16.376Z,68.90
2019-04-28T07:38:45.572Z,67.40
2019-04-28T07:41:14.829Z,67.10
2019-04-28T07:43:44.099Z,66.50
2019-04-28T07:46:13.343Z,65.90
2019-04-28T07:48:42.583Z,64.80
2019-04-28T07:51:12.021Z,62.30
2019-04-28T07:53:46.351Z,61.10
2019-04-28T07:56:15.875Z,60.90
2019-04-28T07:58:45.042Z,61.70
2019-04-28T08:01:14.337Z,62.90
2019-04-28T08:03:49.600Z,62.40
2019-04-28T08:06:14.605Z,62.20
2019-04-28T08:08:43.845Z,59.00
2019-04-28T08:11:13.630Z,59.60
2019-04-28T08:13:42.927Z,58.30
2019-04-28T08:16:12.117Z,59.40
2019-04-28T08:18:41.817Z,60.40
2019-04-28T08:21:11.076Z,63.10
2019-04-28T08:23:46.866Z,64.00
2019-04-28T08:26:11.476Z,66.50
2019-04-28T08:28:40.632Z,68.20
2019-04-28T08:31:11.517Z,69.00
2019-04-28T08:33:46.016Z,69.40
2019-04-28T08:36:15.330Z,69.10
2019-04-28T08:38:44.568Z,68.60
2019-04-28T08:41:13.741Z,69.30
2019-04-28T08:43:42.965Z,69.50
2019-04-28T08:46:12.260Z,66.60
2019-04-28T08:48:41.466Z,61.40
2019-04-28T08:51:10.754Z,57.20
2019-04-28T08:53:41.293Z,58.80
2019-04-28T08:56:10.901Z,57.60
2019-04-28T08:58:40.060Z,56.60
2019-04-28T09:01:09.316Z,58.20
2019-04-28T09:03:38.833Z,60.10
2019-04-28T09:06:08.024Z,59.70
2019-04-28T09:08:37.248Z,60.20
2019-04-28T09:11:06.617Z,59.10
2019-04-28T09:13:35.800Z,60.50
2019-04-28T09:16:05.061Z,61.40
2019-04-28T09:18:34.299Z,63.20
2019-04-28T09:21:03.509Z,62.70
2019-04-28T09:23:32.713Z,62.10
2019-04-28T09:26:01.859Z,64.00
2019-04-28T09:28:31.035Z,63.90
2019-04-28T09:31:00.311Z,63.90
2019-04-28T09:33:29.503Z,63.20
2019-04-28T09:35:58.800Z,64.30
2019-04-28T09:38:27.984Z,63.60
2019-04-28T09:40:57.262Z,62.70
2019-04-28T09:43:44.373Z,63.70
2019-04-28T09:46:20.476Z,61.70
2019-04-28T09:48:49.929Z,63.20
2019-04-28T09:51:19.153Z,59.00
2019-04-28T09:53:48.321Z,58.40
2019-04-28T09:56:17.589Z,59.20
2019-04-28T09:58:47.914Z,56.80
2019-04-28T10:01:17.152Z,56.20
2019-04-28T10:03:46.542Z,54.70
2019-04-28T10:06:15.919Z,54.40
2019-04-28T10:08:45.331Z,54.00
2019-04-28T10:11:14.449Z,54.70
2019-04-28T10:13:43.648Z,53.70
2019-04-28T10:16:12.925Z,51.50
2019-04-28T10:18:42.106Z,51.10
2019-04-28T10:21:11.284Z,54.10
2019-04-28T10:23:40.491Z,55.30
2019-04-28T10:26:09.636Z,54.50
2019-04-28T10:28:39.018Z,53.60
2019-04-28T10:31:08.268Z,50.60
2019-04-28T10:33:39.956Z,51.20
2019-04-28T10:36:09.209Z,50.10
2019-04-28T10:38:40.947Z,50.60
2019-04-28T10:41:15.873Z,49.50
2019-04-28T10:43:45.144Z,47.10
2019-04-28T10:46:14.329Z,49.00
2019-04-28T10:48:44.075Z,47.10
2019-04-28T10:51:13.350Z,45.60
2019-04-28T10:53:42.539Z,48.70
2019-04-28T10:56:11.809Z,47.40
2019-04-28T10:58:43.957Z,44.80
2019-04-28T11:01:13.225Z,43.80
2019-04-28T11:03:44.756Z,42.50
2019-04-28T11:06:14.013Z,41.10
2019-04-28T11:08:59.552Z,38.10
2019-04-28T11:11:28.948Z,35.50
2019-04-28T11:13:58.222Z,38.00
2019-04-28T11:16:31.332Z,34.70
2019-04-28T11:19:00.604Z,35.50
2019-04-28T11:21:29.883Z,37.60
2019-04-28T11:23:59.027Z,36.00
2019-04-28T11:26:28.848Z,38.50
2019-04-28T11:28:58.119Z,35.30
2019-04-28T11:31:27.805Z,33.10
2019-04-28T11:34:08.290Z,34.90
2019-04-28T11:36:37.786Z,37.30
2019-04-28T11:39:09.468Z,34.30
2019-04-28T11:41:38.860Z,32.70
2019-04-28T11:44:08.368Z,31.60
2019-04-28T11:46:37.825Z,33.50
2019-04-28T11:49:07.220Z,33.30
2019-04-28T11:51:36.420Z,35.00
2019-04-28T11:54:05.654Z,35.60
2019-04-28T11:56:41.095Z,34.50
2019-04-28T11:59:05.952Z,31.10
2019-04-28T12:01:35.580Z,34.30
2019-04-28T12:04:06.673Z,36.40
2019-04-28T12:06:35.984Z,38.30
2019-04-28T12:09:21.022Z,37.70
2019-04-28T12:11:51.551Z,40.50
2019-04-28T12:14:39.752Z,39.20
2019-04-28T12:17:47.150Z,41.00
2019-04-28T12:20:19.538Z,42.60
2019-04-28T12:22:48.716Z,39.90
2019-04-28T12:25:18.377Z,42.30
2019-04-28T12:27:47.571Z,42.80
2019-04-28T12:30:17.049Z,44.10
2019-04-28T12:32:46.237Z,44.20
2019-04-28T12:35:18.254Z,43.40
2019-04-28T12:37:46.380Z,44.90
2019-04-28T12:40:16.219Z,47.40
2019-04-28T12:42:45.496Z,45.60
2019-04-28T12:45:15.000Z,45.40
2019-04-28T12:47:44.200Z,44.80
2019-04-28T12:50:27.366Z,45.90
2019-04-28T12:52:56.563Z,47.10
2019-04-28T12:55:25.914Z,45.60
2019-04-28T12:57:55.085Z,45.80
2019-04-28T13:00:43.375Z,45.80
2019-04-28T13:03:24.745Z,47.30
2019-04-28T13:06:02.383Z,47.10
2019-04-28T13:08:25.091Z,44.00
2019-04-28T13:10:54.363Z,45.80
2019-04-28T13:13:23.583Z,47.20
2019-04-28T13:15:52.884Z,49.90
2019-04-28T13:18:22.059Z,48.90
2019-04-28T13:20:51.282Z,49.90
2019-04-28T13:23:20.504Z,49.10
2019-04-28T13:25:49.761Z,48.00
2019-04-28T13:28:18.947Z,48.90
2019-04-28T13:30:48.314Z,45.90
2019-04-28T13:33:17.595Z,46.90
2019-04-28T13:35:46.873Z,47.10
2019-04-28T13:38:16.301Z,44.70
2019-04-28T13:40:45.770Z,47.00
2019-04-28T13:43:15.084Z,46.80
2019-04-28T13:45:44.349Z,42.40
2019-04-28T13:48:13.878Z,43.50
2019-04-28T13:50:43.139Z,42.50
2019-04-28T13:53:12.427Z,44.60
2019-04-28T13:55:59.458Z,45.90
2019-04-28T13:58:54.220Z,43.10
2019-04-28T14:01:40.319Z,42.60
2019-04-28T14:04:28.638Z,43.10
2019-04-28T14:07:03.065Z,43.80
2019-04-28T14:09:32.280Z,46.10
2019-04-28T14:12:01.611Z,44.50
2019-04-28T14:14:30.829Z,41.60
2019-04-28T14:17:00.093Z,42.80
2019-04-28T14:19:29.502Z,43.00
2019-04-28T14:21:59.065Z,43.00
2019-04-28T14:24:28.392Z,40.50
2019-04-28T14:26:57.607Z,40.40
2019-04-28T14:29:26.873Z,40.60
2019-04-28T14:31:56.322Z,38.70
2019-04-28T14:34:25.554Z,35.60
2019-04-28T14:36:54.801Z,40.80
2019-04-28T14:39:23.968Z,40.50
2019-04-28T14:41:53.336Z,42.20
2019-04-28T14:44:22.524Z,41.20
2019-04-28T14:46:51.725Z,38.70
2019-04-28T14:49:20.917Z,38.70
2019-04-28T14:51:50.179Z,40.60
2019-04-28T14:54:19.421Z,42.40
2019-04-28T14:56:48.764Z,45.50
2019-04-28T14:59:17.924Z,44.50
2019-04-28T15:02:04.140Z,44.30
2019-04-28T15:04:54.524Z,44.50
2019-04-28T15:07:51.818Z,42.60
2019-04-28T15:10:28.461Z,41.00
2019-04-28T15:12:57.849Z,42.10
2019-04-28T15:15:27.175Z,44.30
2019-04-28T15:17:56.467Z,42.90
2019-04-28T15:20:25.824Z,43.90
2019-04-28T15:22:55.038Z,42.80
2019-04-28T15:25:24.289Z,41.90
2019-04-28T15:27:53.497Z,41.30
2019-04-28T15:30:22.784Z,41.70
2019-04-28T15:32:52.435Z,43.10
2019-04-28T15:35:21.603Z,42.50
2019-04-28T15:37:50.881Z,42.70
2019-04-28T15:40:20.188Z,43.80
2019-04-28T15:42:49.382Z,44.10
2019-04-28T15:45:18.668Z,42.80
2019-04-28T15:47:47.869Z,41.80
2019-04-28T15:50:17.309Z,42.60
2019-04-28T15:52:46.549Z,43.50
2019-04-28T15:55:19.096Z,43.10
2019-04-28T15:57:48.506Z,43.60
2019-04-28T16:00:17.960Z,42.80
2019-04-28T16:02:47.153Z,43.10
2019-04-28T16:05:16.329Z,44.30
2019-04-28T16:07:45.615Z,44.90
2019-04-28T16:10:15.231Z,45.00
2019-04-28T16:12:44.436Z,46.50
2019-04-28T16:15:13.712Z,46.50
2019-04-28T16:17:42.892Z,46.50
2019-04-28T16:20:12.591Z,44.90
2019-04-28T16:22:41.893Z,44.20
2019-04-28T16:25:11.169Z,46.30
2019-04-28T16:27:40.411Z,44.00
2019-04-28T16:30:09.725Z,43.50
2019-04-28T16:32:38.918Z,44.00
2019-04-28T16:35:08.263Z,45.20
2019-04-28T16:37:38.961Z,44.90
2019-04-28T16:40:09.633Z,44.90
2019-04-28T16:42:44.852Z,43.60
2019-04-28T16:45:18.469Z,44.80
2019-04-28T16:47:46.213Z,45.00
2019-04-28T16:50:15.853Z,43.40
2019-04-28T16:52:45.114Z,43.50
2019-04-28T16:55:18.247Z,43.80
2019-04-28T16:58:15.659Z,44.70
2019-04-28T17:01:13.421Z,45.00
2019-04-28T17:03:42.837Z,44.10
2019-04-28T17:06:12.119Z,43.10
2019-04-28T17:08:44.537Z,42.80
2019-04-28T17:11:12.906Z,43.10
2019-04-28T17:13:42.292Z,43.10
2019-04-28T17:16:11.480Z,45.50
2019-04-28T17:18:40.632Z,47.60
2019-04-28T17:21:09.932Z,49.10
2019-04-28T17:23:39.134Z,48.90
2019-04-28T17:26:11.227Z,48.70
2019-04-28T17:28:39.318Z,48.40
2019-04-28T17:31:08.601Z,48.50
2019-04-28T17:33:38.041Z,48.50
2019-04-28T17:36:07.279Z,48.70
2019-04-28T17:38:36.437Z,48.80
2019-04-28T17:41:05.795Z,48.70
2019-04-28T17:43:35.093Z,49.10
2019-04-28T17:46:05.028Z,49.40
2019-04-28T17:48:37.168Z,50.10
2019-04-28T17:51:06.480Z,50.10
2019-04-28T17:53:35.641Z,50.40
2019-04-28T17:56:05.190Z,51.30
2019-04-28T17:58:34.404Z,51.10
2019-04-28T18:01:25.955Z,51.30
2019-04-28T18:04:14.370Z,51.50
2019-04-28T18:06:47.260Z,52.30
2019-04-28T18:09:17.863Z,51.40
2019-04-28T18:11:47.252Z,51.70
2019-04-28T18:14:16.766Z,51.90
2019-04-28T18:17:05.065Z,52.10
2019-04-28T18:19:34.961Z,52.10
2019-04-28T18:22:04.420Z,53.30
2019-04-28T18:24:33.868Z,53.50
2019-04-28T18:27:03.368Z,53.80
2019-04-28T18:29:32.553Z,53.20
2019-04-28T18:32:14.614Z,54.40
2019-04-28T18:34:48.689Z,55.00
2019-04-28T18:37:42.685Z,55.40
2019-04-28T18:40:37.036Z,55.60
2019-04-28T18:43:19.804Z,56.00
2019-04-28T18:45:49.041Z,55.70
2019-04-28T18:48:18.452Z,56.00
2019-04-28T18:50:47.796Z,56.70
2019-04-28T18:53:17.085Z,58.40
2019-04-28T18:55:46.245Z,59.30
2019-04-28T18:58:15.452Z,60.10
2019-04-28T19:00:50.670Z,60.40
2019-04-28T19:03:19.953Z,61.40
2019-04-28T19:05:50.789Z,62.40
2019-04-28T19:08:48.517Z,62.90
2019-04-28T19:11:17.813Z,63.20
2019-04-28T19:13:54.631Z,63.00
2019-04-28T19:16:41.481Z,64.00
2019-04-28T19:19:11.346Z,64.60
2019-04-28T19:21:42.246Z,62.70
2019-04-28T19:24:11.589Z,61.60
2019-04-28T19:26:40.871Z,62.20
2019-04-28T19:29:10.049Z,64.00
2019-04-28T19:31:39.296Z,64.40
2019-04-28T19:34:08.468Z,65.40
2019-04-28T19:36:49.438Z,65.70
2019-04-28T19:39:18.736Z,66.10
2019-04-28T19:41:47.980Z,65.20
2019-04-28T19:44:17.247Z,65.90
2019-04-28T19:46:46.424Z,64.30
2019-04-28T19:49:16.064Z,65.10
2019-04-28T19:51:45.216Z,65.70
2019-04-28T19:54:15.274Z,65.50
2019-04-28T19:57:00.504Z,64.30
2019-04-28T19:59:51.710Z,65.10
2019-04-28T20:02:21.047Z,64.50
2019-04-28T20:04:50.444Z,64.90
2019-04-28T20:07:19.589Z,65.60
2019-04-28T20:09:48.902Z,65.60
2019-04-28T20:12:18.057Z,65.70
2019-04-28T20:14:47.366Z,65.80
2019-04-28T20:17:16.797Z,65.20
2019-04-28T20:19:45.982Z,64.60
2019-04-28T20:22:15.184Z,64.40
2019-04-28T20:24:47.326Z,64.60
2019-04-28T20:27:15.825Z,64.90
2019-04-28T20:29:45.137Z,65.40
2019-04-28T20:32:14.414Z,65.30
2019-04-28T20:34:43.579Z,66.20
2019-04-28T20:37:26.747Z,67.80
2019-04-28T20:40:00.093Z,67.40
2019-04-28T20:42:42.583Z,69.10
2019-04-28T20:45:12.907Z,70.20
2019-04-28T20:47:42.305Z,69.40
2019-04-28T20:50:11.781Z,70.30
2019-04-28T20:52:41.012Z,70.20
2019-04-28T20:55:10.301Z,70.70
2019-04-28T20:57:39.563Z,71.50
2019-04-28T21:00:09.185Z,71.80
2019-04-28T21:02:38.524Z,72.20
2019-04-28T21:05:07.809Z,72.00
2019-04-28T21:07:37.039Z,72.90
2019-04-28T21:10:06.506Z,72.10
2019-04-28T21:12:35.747Z,72.90
2019-04-28T21:15:05.302Z,72.90
2019-04-28T21:17:35.236Z,72.00
2019-04-28T21:20:05.307Z,72.30
2019-04-28T21:22:34.702Z,71.90
2019-04-28T21:25:04.432Z,73.70
2019-04-28T21:27:33.592Z,73.60
2019-04-28T21:30:02.897Z,73.10
2019-04-28T21:32:32.074Z,73.50
2019-04-28T21:35:01.325Z,73.50
2019-04-28T21:37:30.641Z,74.30
2019-04-28T21:39:59.892Z,75.30
2019-04-28T21:42:40.496Z,75.00
2019-04-28T21:45:25.394Z,75.50
2019-04-28T21:47:54.883Z,75.20
2019-04-28T21:50:24.052Z,75.70
2019-04-28T21:52:53.218Z,76.10
2019-04-28T21:55:22.409Z,78.20
2019-04-28T21:57:51.604Z,77.60
2019-04-28T22:00:26.645Z,77.50
2019-04-28T22:02:55.955Z,78.40
2019-04-28T22:05:30.378Z,78.40
2019-04-28T22:07:56.393Z,78.20
2019-04-28T22:10:25.545Z,77.50
2019-04-28T22:12:54.780Z,77.40
2019-04-28T22:15:23.969Z,77.50
2019-04-28T22:17:53.109Z,77.90
2019-04-28T22:20:22.424Z,78.40
2019-04-28T22:22:51.688Z,77.80
2019-04-28T22:25:22.811Z,77.30
2019-04-28T22:27:51.949Z,78.10
2019-04-28T22:30:21.336Z,78.50
2019-04-28T22:32:50.541Z,78.20
2019-04-28T22:35:19.695Z,79.10
2019-04-28T22:37:48.900Z,79.00
2019-04-28T22:40:18.151Z,78.40
2019-04-28T22:42:47.359Z,78.30
2019-04-28T22:45:17.164Z,78.10
2019-04-28T22:47:46.885Z,78.50
2019-04-28T22:50:38.916Z,78.00
2019-04-28T22:53:08.695Z,78.40
2019-04-28T22:55:45.867Z,78.40
2019-04-28T22:58:22.077Z,78.10
2019-04-28T23:01:02.823Z,77.50
2019-04-28T23:03:37.540Z,77.70
2019-04-28T23:06:10.143Z,77.50
2019-04-28T23:08:38.037Z,77.80
2019-04-28T23:11:07.413Z,78.00
2019-04-28T23:13:36.596Z,77.90
2019-04-28T23:16:05.860Z,77.40
2019-04-28T23:18:35.080Z,76.70
2019-04-28T23:21:09.655Z,77.00
2019-04-28T23:23:38.939Z,76.80
2019-04-28T23:26:08.123Z,77.00
2019-04-28T23:28:37.277Z,77.10
2019-04-28T23:31:06.449Z,77.00
2019-04-28T23:33:35.795Z,76.80
2019-04-28T23:36:04.976Z,76.70
2019-04-28T23:38:34.196Z,77.30
2019-04-28T23:41:14.304Z,77.30
2019-04-28T23:43:43.491Z,77.40
2019-04-28T23:46:13.142Z,77.50
2019-04-28T23:48:42.320Z,77.30
2019-04-28T23:51:39.665Z,76.90
2019-04-28T23:54:09.260Z,76.80
2019-04-28T23:56:38.437Z,76.70
2019-04-28T23:59:07.610Z,76.50
